Time,TemperatureF,DewpointF,PressureIn,WindDirection,WindDirectionDegrees,WindSpeedMPH,WindSpeedGustMPH,Humidity,HourlyPrecipIn,Conditions,Clouds,dailyrainin,SoftwareType,DateUTC
2013-02-25 06:01:00,29.0,28.0,29.99,NNW,337,0.0,0.0,95,-99.99,,,-99.99,,2013-02-25 11:01:00,
2013-02-25 06:11:00,29.0,28.0,29.99,NNW,337,0.0,0.0,95,-99.99,,,-99.99,,2013-02-25 11:11:00,
2013-02-25 06:22:00,29.0,28.0,29.99,NNW,338,0.0,3.0,95,-99.99,,,-99.99,,2013-02-25 11:22:00,
2013-02-25 06:32:00,28.0,27.0,29.99,NNW,338,2.0,4.0,95,-99.99,,,-99.99,,2013-02-25 11:32:00,
2013-02-25 06:42:00,28.0,27.0,29.99,NNW,338,2.0,4.0,95,-99.99,,,-99.99,,2013-02-25 11:42:00,
2013-02-25 06:52:00,28.0,27.0,29.99,NNW,338,0.0,3.0,95,-99.99,,,-99.99,,2013-02-25 11:52:00,
2013-02-25 07:02:00,28.0,27.0,30.00,NNW,338,0.0,0.0,95,0.00,,,-99.99,,2013-02-25 12:02:00,
2013-02-25 07:11:00,28.0,27.0,30.00,NNW,338,0.0,0.0,95,0.00,,,-99.99,,2013-02-25 12:11:00,
2013-02-25 07:21:00,28.0,27.0,30.01,NNW,338,0.0,1.0,95,0.00,,,-99.99,,2013-02-25 12:21:00,
2013-02-25 07:32:00,28.0,27.0,30.02,NNW,338,0.0,0.0,96,0.00,,,-99.99,,2013-02-25 12:32:00,
2013-02-25 07:42:00,28.0,27.0,30.02,NNW,338,0.0,0.0,96,0.00,,,-99.99,,2013-02-25 12:42:00,
2013-02-25 07:55:00,29.0,28.0,30.02,NNW,338,0.0,2.0,96,0.00,,,-99.99,,2013-02-25 12:55:00,
2013-02-25 08:02:00,30.0,29.0,30.03,North,351,2.0,5.0,95,0.00,,,-99.99,,2013-02-25 13:02:00,
2013-02-25 08:12:00,30.0,29.0,30.03,North,351,2.0,5.0,95,0.00,,,-99.99,,2013-02-25 13:12:00,
2013-02-25 08:22:00,31.0,30.0,30.03,North,355,1.0,5.0,95,0.00,,,-99.99,,2013-02-25 13:22:00,
2013-02-25 08:32:00,31.0,30.0,30.04,NE,34,2.0,7.0,95,0.00,,,-99.99,,2013-02-25 13:32:00,
2013-02-25 08:42:00,31.0,30.0,30.04,NE,34,2.0,7.0,95,0.00,,,-99.99,,2013-02-25 13:42:00,
2013-02-25 08:52:00,32.0,30.0,30.04,NNW,346,2.0,10.0,94,0.00,,,-99.99,,2013-02-25 13:52:00,
2013-02-25 09:03:00,32.0,30.0,30.05,NNW,345,3.0,9.0,92,0.01,,,-99.99,,2013-02-25 14:03:00,
2013-02-25 09:17:00,32.0,30.0,30.05,NNW,345,3.0,9.0,92,0.01,,,-99.99,,2013-02-25 14:17:00,
2013-02-25 09:32:00,34.0,31.0,30.06,NNW,347,4.0,10.0,88,0.04,,,-99.99,,2013-02-25 14:32:00,
2013-02-25 09:42:00,34.0,31.0,30.06,NNW,347,4.0,10.0,88,0.04,,,-99.99,,2013-02-25 14:42:00,
2013-02-25 09:52:00,34.0,31.0,30.06,NNW,341,3.0,10.0,87,0.06,,,-99.99,,2013-02-25 14:52:00,
2013-02-25 10:02:00,35.0,31.0,30.06,NW,325,2.0,7.0,86,0.05,,,-99.99,,2013-02-25 15:02:00,
2013-02-25 10:11:00,35.0,31.0,30.06,NW,325,2.0,7.0,86,0.05,,,-99.99,,2013-02-25 15:11:00,
2013-02-25 10:22:00,36.0,31.0,30.07,NNW,335,3.0,9.0,83,0.04,,,-99.99,,2013-02-25 15:22:00,
2013-02-25 10:32:00,36.0,31.0,30.07,North,355,4.0,9.0,82,0.03,,,-99.99,,2013-02-25 15:32:00,
2013-02-25 10:42:00,36.0,31.0,30.07,North,355,4.0,9.0,82,0.03,,,-99.99,,2013-02-25 15:42:00,
2013-02-25 10:52:00,36.0,31.0,30.07,North,360,4.0,10.0,82,0.02,,,-99.99,,2013-02-25 15:52:00,
2013-02-25 11:02:00,37.0,31.0,30.08,NNE,17,6.0,12.0,80,0.02,,,-99.99,,2013-02-25 16:02:00,
2013-02-25 11:12:00,37.0,31.0,30.08,NNE,17,6.0,12.0,80,0.02,,,-99.99,,2013-02-25 16:12:00,
2013-02-25 11:22:00,37.0,31.0,30.09,NNE,33,4.0,11.0,80,0.01,,,-99.99,,2013-02-25 16:22:00,
2013-02-25 11:32:00,37.0,31.0,30.08,NNE,25,3.0,10.0,78,0.01,,,-99.99,,2013-02-25 16:32:00,
2013-02-25 11:42:00,37.0,31.0,30.08,NNE,25,3.0,10.0,78,0.01,,,-99.99,,2013-02-25 16:42:00,
2013-02-25 11:52:00,38.0,31.0,30.08,NNW,331,5.0,13.0,77,0.00,,,-99.99,,2013-02-25 16:52:00,
2013-02-25 12:01:00,37.0,31.0,30.09,NNW,344,4.0,10.0,78,0.00,,,-99.99,,2013-02-25 17:01:00,
2013-02-25 12:11:00,37.0,31.0,30.09,NNW,344,4.0,10.0,78,0.00,,,-99.99,,2013-02-25 17:11:00,
2013-02-25 12:21:00,40.0,32.0,30.09,NNE,20,2.0,7.0,74,0.00,,,-99.99,,2013-02-25 17:21:00,
2013-02-25 12:32:00,38.0,31.0,30.09,NNW,343,3.0,12.0,76,0.00,,,-99.99,,2013-02-25 17:32:00,
2013-02-25 12:42:00,38.0,31.0,30.09,NNW,343,3.0,12.0,76,0.00,,,-99.99,,2013-02-25 17:42:00,
2013-02-25 12:52:00,38.0,30.0,30.09,NNE,30,4.0,10.0,74,0.00,,,-99.99,,2013-02-25 17:52:00,
2013-02-25 13:01:00,39.0,30.0,30.10,North,5,4.0,10.0,71,0.00,,,-99.99,,2013-02-25 18:01:00,
2013-02-25 13:12:00,39.0,30.0,30.10,North,5,4.0,10.0,71,0.00,,,-99.99,,2013-02-25 18:12:00,
2013-02-25 13:21:00,39.0,30.0,30.10,NE,49,4.0,9.0,70,0.00,,,-99.99,,2013-02-25 18:21:00,
2013-02-25 13:32:00,39.0,29.0,30.10,NNW,342,5.0,11.0,68,0.00,,,-99.99,,2013-02-25 18:32:00,
2013-02-25 13:42:00,39.0,29.0,30.10,NNW,342,5.0,11.0,68,0.00,,,-99.99,,2013-02-25 18:42:00,
2013-02-25 13:52:00,40.0,30.0,30.11,North,360,4.0,11.0,66,0.00,,,-99.99,,2013-02-25 18:52:00,
2013-02-25 14:01:00,41.0,30.0,30.11,NNE,21,3.0,9.0,64,0.00,,,-99.99,,2013-02-25 19:01:00,
2013-02-25 14:11:00,41.0,30.0,30.11,NNE,21,3.0,9.0,64,0.00,,,-99.99,,2013-02-25 19:11:00,
2013-02-25 14:21:00,40.0,30.0,30.10,North,355,4.0,6.0,67,0.00,,,-99.99,,2013-02-25 19:21:00,
2013-02-25 14:32:00,41.0,31.0,30.11,North,5,1.0,5.0,66,0.00,,,-99.99,,2013-02-25 19:32:00,
2013-02-25 14:42:00,41.0,31.0,30.11,North,5,1.0,5.0,66,0.00,,,-99.99,,2013-02-25 19:42:00,
2013-02-25 14:52:00,40.0,30.0,30.11,North,355,5.0,12.0,66,0.00,,,-99.99,,2013-02-25 19:52:00,
2013-02-25 15:01:00,40.0,29.0,30.12,NNW,342,3.0,12.0,65,0.00,,,-99.99,,2013-02-25 20:01:00,
2013-02-25 15:11:00,40.0,29.0,30.12,NNW,342,3.0,12.0,65,0.00,,,-99.99,,2013-02-25 20:11:00,
2013-02-25 15:21:00,40.0,29.0,30.12,NNW,334,6.0,10.0,65,0.00,,,-99.99,,2013-02-25 20:21:00,
2013-02-25 15:32:00,40.0,29.0,30.13,North,355,2.0,9.0,65,0.00,,,-99.99,,2013-02-25 20:32:00,
2013-02-25 15:42:00,40.0,29.0,30.13,North,355,2.0,9.0,65,0.00,,,-99.99,,2013-02-25 20:42:00,
2013-02-25 15:52:00,39.0,29.0,30.13,NW,319,2.0,7.0,66,0.00,,,-99.99,,2013-02-25 20:52:00,
2013-02-25 16:01:00,39.0,28.0,30.13,NNE,17,1.0,9.0,65,0.00,,,-99.99,,2013-02-25 21:01:00,
2013-02-25 16:11:00,39.0,28.0,30.13,NNE,17,1.0,9.0,65,0.00,,,-99.99,,2013-02-25 21:11:00,
2013-02-25 16:21:00,39.0,28.0,30.13,North,355,3.0,5.0,65,0.00,,,-99.99,,2013-02-25 21:21:00,
2013-02-25 16:32:00,39.0,29.0,30.14,WNW,289,1.0,5.0,66,0.00,,,-99.99,,2013-02-25 21:32:00,
2013-02-25 16:42:00,39.0,29.0,30.14,WNW,289,1.0,5.0,66,0.00,,,-99.99,,2013-02-25 21:42:00,
2013-02-25 16:52:00,39.0,29.0,30.15,WNW,297,0.0,0.0,68,0.00,,,-99.99,,2013-02-25 21:52:00,
2013-02-25 17:01:00,39.0,30.0,30.16,NNW,346,0.0,4.0,69,0.00,,,-99.99,,2013-02-25 22:01:00,
2013-02-25 17:11:00,39.0,30.0,30.16,NNW,346,0.0,4.0,69,0.00,,,-99.99,,2013-02-25 22:11:00,
2013-02-25 17:21:00,38.0,29.0,30.17,WNW,288,0.0,6.0,71,0.00,,,-99.99,,2013-02-25 22:21:00,
2013-02-25 17:32:00,38.0,30.0,30.16,NW,325,1.0,4.0,72,0.00,,,-99.99,,2013-02-25 22:32:00,
2013-02-25 17:42:00,38.0,30.0,30.16,NW,325,1.0,4.0,72,0.00,,,-99.99,,2013-02-25 22:42:00,
2013-02-25 17:52:00,38.0,30.0,30.17,NW,325,2.0,4.0,72,0.00,,,-99.99,,2013-02-25 22:52:00,
2013-02-25 18:01:00,37.0,29.0,30.17,NW,325,0.0,0.0,74,0.00,,,-99.99,,2013-02-25 23:01:00,
2013-02-25 18:11:00,37.0,29.0,30.17,NW,325,0.0,0.0,74,0.00,,,-99.99,,2013-02-25 23:11:00,
2013-02-25 18:22:00,37.0,29.0,30.18,NW,325,0.0,1.0,74,0.00,,,-99.99,,2013-02-25 23:22:00,
2013-02-25 18:32:00,36.0,29.0,30.17,NW,325,0.0,0.0,74,0.00,,,-99.99,,2013-02-25 23:32:00,
2013-02-25 18:42:00,36.0,29.0,30.17,NW,325,0.0,0.0,74,0.00,,,-99.99,,2013-02-25 23:42:00,
2013-02-25 18:52:00,35.0,28.0,30.17,NW,325,0.0,0.0,75,0.00,,,-99.99,,2013-02-25 23:52:00,
2013-02-25 19:01:00,35.0,28.0,30.18,NW,325,0.0,0.0,75,0.00,,,-99.99,,2013-02-26 00:01:00,
2013-02-25 19:12:00,35.0,28.0,30.18,NW,325,0.0,0.0,75,0.00,,,-99.99,,2013-02-26 00:12:00,
2013-02-25 19:22:00,34.0,27.0,30.19,NW,325,0.0,0.0,76,0.00,,,-99.99,,2013-02-26 00:22:00,
2013-02-25 19:32:00,33.0,27.0,30.20,NW,325,0.0,0.0,77,0.00,,,-99.99,,2013-02-26 00:32:00,
2013-02-25 19:42:00,33.0,27.0,30.20,NW,325,0.0,0.0,77,0.00,,,-99.99,,2013-02-26 00:42:00,
2013-02-25 19:52:00,33.0,27.0,30.21,NW,325,0.0,0.0,79,-99.99,,,-99.99,,2013-02-26 00:52:00,
2013-02-25 20:02:00,33.0,28.0,30.22,NW,325,0.0,0.0,81,-99.99,,,-99.99,,2013-02-26 01:02:00,
2013-02-25 20:11:00,33.0,28.0,30.22,NW,325,0.0,0.0,81,-99.99,,,-99.99,,2013-02-26 01:11:00,
2013-02-25 20:21:00,32.0,27.0,30.22,NW,325,0.0,0.0,82,-99.99,,,-99.99,,2013-02-26 01:21:00,
2013-02-25 20:32:00,32.0,27.0,30.23,NW,325,0.0,0.0,82,0.00,,,0.00,,2013-02-26 01:32:00,
2013-02-25 20:42:00,32.0,27.0,30.23,NW,325,0.0,0.0,82,0.00,,,0.00,,2013-02-26 01:42:00,
2013-02-25 20:52:00,32.0,27.0,30.23,NW,325,0.0,0.0,82,0.00,,,0.00,,2013-02-26 01:52:00,
2013-02-25 21:01:00,32.0,27.0,30.23,NW,325,0.0,0.0,82,0.00,,,0.00,,2013-02-26 02:01:00,
2013-02-25 21:11:00,32.0,27.0,30.23,NW,325,0.0,0.0,82,0.00,,,0.00,,2013-02-26 02:11:00,